Time;durP1;ratioP1;P1;durP2;ratioP2;P2;SDS_P1;SDS_P2;PMS_P1;PMS_P2;Temp;Humidity;BMP_temperature;BMP_pressure;BME280_temperature;BME280_humidity;BME280_pressure;Samples;Min_cycle;Max_cycle;Signal;HPM_P1;HPM_P2
2021/01/26 00:04:05;;;;;;;6.82;1.70;;;21.80;40.10;;;;;;20758789;28;20034;-16
2021/01/26 00:14:06;;;;;;;4.15;2.08;;;21.70;39.90;;;;;;20754144;28;20034;-16
2021/01/26 00:24:07;;;;;;;4.50;1.95;;;21.80;39.30;;;;;;20753668;28;20034;-16
2021/01/26 00:34:07;;;;;;;2.90;1.70;;;21.50;39.30;;;;;;20752350;28;20104;-16
2021/01/26 00:44:08;;;;;;;3.83;2.30;;;21.40;39.40;;;;;;20767642;28;20040;-16
2021/01/26 00:54:09;;;;;;;4.32;2.50;;;21.30;39.30;;;;;;20773476;28;20057;-17
2021/01/26 01:04:09;;;;;;;6.57;2.40;;;21.20;39.40;;;;;;20723051;28;20053;-16
2021/01/26 01:14:10;;;;;;;4.32;2.20;;;21.10;39.20;;;;;;20755786;28;20471;-17
2021/01/26 01:24:10;;;;;;;4.93;2.17;;;20.90;39.40;;;;;;20779271;28;20270;-17
2021/01/26 01:34:11;;;;;;;4.20;2.25;;;20.80;39.60;;;;;;20787673;28;20544;-17
2021/01/26 01:44:12;;;;;;;3.78;1.98;;;20.50;40.40;;;;;;20774817;28;20037;-17
2021/01/26 01:54:18;;;;;;;2.88;1.48;;;20.50;40.30;;;;;;20767672;28;20064;-17
2021/01/26 02:04:21;;;;;;;4.22;1.77;;;20.60;40.00;;;;;;20772371;28;20074;-16
2021/01/26 02:14:26;;;;;;;2.28;1.48;;;20.70;39.70;;;;;;20736954;28;20510;-17
2021/01/26 02:25:01;;;;;;;2.72;1.48;;;20.80;39.50;;;;;;20762470;28;20033;-17
2021/01/26 02:35:20;;;;;;;3.40;1.65;;;20.90;39.10;;;;;;20781153;28;20034;-16
2021/01/26 02:45:40;;;;;;;2.45;1.50;;;20.90;39.10;;;;;;20735965;28;20034;-16
2021/01/26 02:56:01;;;;;;;2.65;1.30;;;20.90;38.70;;;;;;20732501;28;20389;-17
2021/01/26 03:06:09;;;;;;;2.40;1.30;;;20.90;38.80;;;;;;20744160;28;20025;-17
2021/01/26 03:16:14;;;;;;;2.33;1.47;;;21.00;38.60;;;;;;20738494;28;20488;-16
2021/01/26 03:26:20;;;;;;;5.28;1.77;;;20.90;38.60;;;;;;20741535;28;20026;-17
2021/01/26 03:36:21;;;;;;;3.50;1.30;;;21.00;38.50;;;;;;20739506;28;20558;-16
2021/01/26 03:46:24;;;;;;;3.88;1.67;;;20.90;38.50;;;;;;20738884;28;20081;-16
2021/01/26 03:56:53;;;;;;;2.15;1.30;;;21.00;38.40;;;;;;20727421;28;20030;-17
2021/01/26 04:06:59;;;;;;;2.33;1.10;;;20.90;38.40;;;;;;20722216;28;20029;-16
2021/01/26 04:17:11;;;;;;;1.90;1.20;;;21.00;38.30;;;;;;20737136;28;20037;-17
2021/01/26 04:27:16;;;;;;;2.45;1.30;;;20.90;38.30;;;;;;20737286;28;20042;-16
2021/01/26 04:37:17;;;;;;;2.58;1.17;;;21.00;38.10;;;;;;20736785;28;20101;-17
2021/01/26 04:47:34;;;;;;;3.00;1.20;;;20.90;38.20;;;;;;20739592;28;20072;-17
2021/01/26 04:57:45;;;;;;;4.35;1.45;;;21.00;38.10;;;;;;20722244;28;20113;-16
2021/01/26 05:07:51;;;;;;;3.90;1.15;;;20.90;38.10;;;;;;20749967;28;20386;-16
2021/01/26 05:18:09;;;;;;;2.60;1.45;;;21.00;37.90;;;;;;20748755;28;20025;-18
2021/01/26 05:28:11;;;;;;;1.48;0.77;;;20.90;37.90;;;;;;20752563;28;20492;-17
2021/01/26 05:38:11;;;;;;;1.45;1.20;;;20.90;37.80;;;;;;20772400;28;20037;-18
2021/01/26 05:48:15;;;;;;;1.45;0.85;;;20.90;37.90;;;;;;20768812;28;20036;-17
2021/01/26 05:58:25;;;;;;;1.80;1.00;;;20.90;37.70;;;;;;20762817;28;20034;-18
2021/01/26 06:08:26;;;;;;;3.08;1.10;;;20.90;37.80;;;;;;20766514;28;20079;-17
2021/01/26 06:18:27;;;;;;;2.85;0.95;;;21.00;38.00;;;;;;20770913;28;20208;-19
2021/01/26 06:28:52;;;;;;;10.52;1.50;;;21.40;37.40;;;;;;20762108;28;20041;-18
2021/01/26 06:39:33;;;;;;;13.30;3.10;;;21.50;37.30;;;;;;20757232;28;20526;-17
2021/01/26 06:49:59;;;;;;;12.27;4.25;;;21.90;37.40;;;;;;20769205;28;20033;-17
2021/01/26 07:00:25;;;;;;;14.32;4.90;;;22.10;37.10;;;;;;20734004;28;20042;-17
2021/01/26 07:10:56;;;;;;;15.48;4.57;;;22.00;37.40;;;;;;20762835;28;20046;-17
2021/01/26 07:21:16;;;;;;;15.88;4.18;;;22.00;37.50;;;;;;20769018;28;20025;-17
2021/01/26 07:31:23;;;;;;;10.68;3.65;;;21.70;37.80;;;;;;20767953;28;20040;-16
2021/01/26 07:41:40;;;;;;;10.82;3.70;;;21.50;38.10;;;;;;20756342;28;20042;-16
2021/01/26 07:51:45;;;;;;;9.38;3.10;;;21.50;38.10;;;;;;20752413;28;20038;-16
2021/01/26 08:01:50;;;;;;;9.60;3.13;;;21.50;38.30;;;;;;20741293;28;20026;-16
2021/01/26 08:12:03;;;;;;;7.65;2.65;;;21.50;38.20;;;;;;20748838;28;20026;-16
2021/01/26 08:22:35;;;;;;;9.68;3.40;;;21.40;38.40;;;;;;20750960;28;20037;-17
2021/01/26 08:32:41;;;;;;;6.90;3.22;;;21.40;38.30;;;;;;20772376;28;20022;-16
2021/01/26 08:42:42;;;;;;;7.90;2.83;;;21.50;38.50;;;;;;20815002;23;20041;-14
2021/01/26 08:52:43;;;;;;;7.07;3.00;;;21.60;38.10;;;;;;20864780;28;20036;-12
2021/01/26 09:02:49;;;;;;;5.47;2.67;;;21.80;37.80;;;;;;20851145;28;20467;-12
2021/01/26 09:12:58;;;;;;;11.73;4.40;;;21.70;37.90;;;;;;20874985;28;20083;-13
2021/01/26 09:23:02;;;;;;;5.05;2.25;;;21.90;37.60;;;;;;20883421;28;20211;-14
2021/01/26 09:33:17;;;;;;;5.22;2.78;;;21.60;37.80;;;;;;20903439;28;20037;-12
2021/01/26 09:43:24;;;;;;;3.67;2.20;;;21.60;38.10;;;;;;20869548;28;20040;-14
2021/01/26 09:53:25;;;;;;;4.57;2.47;;;21.50;38.30;;;;;;20860592;28;20060;-13
2021/01/26 10:03:27;;;;;;;4.07;2.60;;;21.50;38.30;;;;;;20877592;28;20037;-14
2021/01/26 10:13:31;;;;;;;5.55;2.65;;;21.50;38.40;;;;;;20887853;28;20025;-14
2021/01/26 10:23:40;;;;;;;4.03;2.42;;;21.40;38.40;;;;;;20868880;28;20033;-15
2021/01/26 10:33:41;;;;;;;4.15;2.22;;;21.50;38.40;;;;;;20862375;28;20510;-14
2021/01/26 10:43:43;;;;;;;4.47;2.35;;;21.50;38.20;;;;;;20906970;28;20154;-14
2021/01/26 10:53:47;;;;;;;3.85;1.83;;;21.50;38.30;;;;;;20880946;28;20025;-14
2021/01/26 11:03:51;;;;;;;4.45;2.40;;;21.60;38.20;;;;;;20904637;28;20024;-14
2021/01/26 11:13:53;;;;;;;3.75;2.15;;;21.50;38.90;;;;;;20874549;28;20044;-14
2021/01/26 11:23:54;;;;;;;3.47;2.15;;;21.60;38.10;;;;;;20855011;28;20064;-14
2021/01/26 11:33:55;;;;;;;5.63;2.13;;;21.50;38.30;;;;;;20894886;28;20115;-14
2021/01/26 11:43:55;;;;;;;3.38;2.15;;;21.60;38.10;;;;;;20898111;28;20118;-14
2021/01/26 11:53:56;;;;;;;3.53;2.15;;;21.50;38.20;;;;;;20875170;28;20114;-14
2021/01/26 12:03:57;;;;;;;3.95;2.15;;;21.60;38.10;;;;;;20910844;28;20040;-14
2021/01/26 12:13:57;;;;;;;3.67;2.33;;;21.50;38.20;;;;;;20882648;28;20060;-14
2021/01/26 12:23:58;;;;;;;3.55;1.88;;;21.60;38.10;;;;;;20884177;28;20032;-12
2021/01/26 12:33:59;;;;;;;3.83;2.37;;;21.60;38.10;;;;;;20892673;28;20047;-14
2021/01/26 12:44:01;;;;;;;3.33;2.13;;;21.60;38.20;;;;;;20887780;28;20479;-12
2021/01/26 12:54:02;;;;;;;2.72;1.80;;;21.60;38.20;;;;;;20875165;28;20074;-14
2021/01/26 13:04:03;;;;;;;2.88;2.08;;;21.60;38.30;;;;;;20870598;28;20057;-14
2021/01/26 13:14:04;;;;;;;3.22;1.80;;;21.70;38.10;;;;;;20871704;28;20037;-13
2021/01/26 13:24:05;;;;;;;3.33;1.90;;;21.60;38.40;;;;;;20877453;28;20040;-12
2021/01/26 13:34:06;;;;;;;2.22;1.35;;;21.70;38.20;;;;;;20869664;28;20029;-12
2021/01/26 13:44:06;;;;;;;3.38;1.83;;;21.60;38.40;;;;;;20868528;28;20044;-14
2021/01/26 13:54:08;;;;;;;2.50;1.67;;;21.70;38.20;;;;;;20850750;28;20030;-14
2021/01/26 14:04:08;;;;;;;2.58;1.42;;;21.50;38.30;;;;;;20857589;28;20032;-14
2021/01/26 14:14:10;;;;;;;1.90;1.50;;;21.60;38.20;;;;;;20868210;28;20159;-14
2021/01/26 14:24:11;;;;;;;2.22;1.10;;;22.00;37.60;;;;;;20871345;28;20483;-14
2021/01/26 14:34:11;;;;;;;2.17;1.10;;;22.50;36.80;;;;;;20863989;28;20398;-13
2021/01/26 14:44:12;;;;;;;1.73;1.00;;;23.00;36.20;;;;;;20862094;28;20382;-14
2021/01/26 14:54:13;;;;;;;3.03;1.23;;;23.40;35.70;;;;;;20853670;28;20032;-14
2021/01/26 15:04:13;;;;;;;4.10;1.40;;;23.70;35.20;;;;;;20866042;28;20024;-14
2021/01/26 15:14:16;;;;;;;2.67;1.17;;;24.00;35.10;;;;;;20876829;28;20567;-14
2021/01/26 15:24:22;;;;;;;5.38;1.70;;;23.90;35.50;;;;;;20842222;28;20028;-14
2021/01/26 15:34:23;;;;;;;5.90;1.33;;;23.60;35.70;;;;;;20882343;28;20470;-14
2021/01/26 15:44:23;;;;;;;6.95;1.45;;;23.40;36.60;;;;;;20895866;28;20115;-14
2021/01/26 15:54:24;;;;;;;8.13;1.40;;;23.40;36.70;;;;;;20864657;28;20064;-15
2021/01/26 16:04:24;;;;;;;5.63;2.53;;;23.20;37.30;;;;;;20863551;28;20091;-14
2021/01/26 16:14:25;;;;;;;8.82;1.50;;;23.10;37.20;;;;;;20851605;28;20087;-15
2021/01/26 16:24:26;;;;;;;7.73;1.67;;;23.00;37.60;;;;;;20846487;28;20029;-14
2021/01/26 16:34:26;;;;;;;13.43;2.42;;;23.00;37.40;;;;;;20861146;28;20510;-14
2021/01/26 16:44:27;;;;;;;3.17;1.45;;;22.80;37.80;;;;;;20872301;28;20124;-14
2021/01/26 16:54:27;;;;;;;3.15;1.13;;;23.00;37.60;;;;;;20859417;28;20087;-14
2021/01/26 17:04:28;;;;;;;3.03;1.08;;;23.20;37.20;;;;;;20899047;28;20076;-13
2021/01/26 17:14:29;;;;;;;10.38;1.65;;;23.10;37.50;;;;;;20877722;28;20036;-14
2021/01/26 17:24:29;;;;;;;8.35;2.92;;;23.30;37.20;;;;;;20869066;28;20025;-13
2021/01/26 17:34:30;;;;;;;5.38;1.40;;;23.30;37.30;;;;;;20864212;28;20060;-12
2021/01/26 17:44:37;;;;;;;5.47;1.15;;;23.30;37.60;;;;;;20862929;28;20041;-14
2021/01/26 17:54:38;;;;;;;6.40;1.10;;;23.00;37.80;;;;;;20893445;28;20561;-12
2021/01/26 18:04:39;;;;;;;4.75;1.40;;;22.70;38.10;;;;;;20869200;28;20087;-13
2021/01/26 18:14:39;;;;;;;3.17;1.05;;;22.90;38.10;;;;;;20863792;28;20029;-14
2021/01/26 18:24:40;;;;;;;7.85;1.98;;;22.80;38.30;;;;;;20868464;28;20376;-13
2021/01/26 18:34:40;;;;;;;6.38;1.42;;;23.00;38.20;;;;;;20859615;28;20033;-13
2021/01/26 18:44:41;;;;;;;6.30;1.55;;;23.20;38.00;;;;;;20860112;28;20128;-14
2021/01/26 18:54:41;;;;;;;11.00;1.38;;;23.00;38.20;;;;;;20858260;28;20040;-14
2021/01/26 19:04:42;;;;;;;6.55;0.90;;;23.20;37.80;;;;;;20846876;28;20108;-13
2021/01/26 19:14:42;;;;;;;7.82;1.25;;;23.10;38.40;;;;;;20874598;28;20102;-13
2021/01/26 19:24:44;;;;;;;10.00;1.90;;;23.20;38.30;;;;;;20855034;28;20029;-14
2021/01/26 19:34:44;;;;;;;7.38;1.80;;;23.10;38.50;;;;;;20890644;28;20496;-14
2021/01/26 19:44:46;;;;;;;15.18;2.35;;;23.00;40.30;;;;;;20883533;28;20090;-14
2021/01/26 19:54:47;;;;;;;15.65;1.90;;;22.90;42.10;;;;;;20891338;28;20048;-14
2021/01/26 20:04:47;;;;;;;4.65;1.73;;;23.10;41.60;;;;;;20884014;28;20665;-14
2021/01/26 20:14:48;;;;;;;9.00;1.90;;;23.60;40.30;;;;;;20856038;28;20033;-14
2021/01/26 20:24:48;;;;;;;8.45;1.60;;;24.10;39.60;;;;;;20875307;28;20491;-14
2021/01/26 20:34:49;;;;;;;7.78;1.83;;;24.00;39.80;;;;;;20862316;28;20017;-14
2021/01/26 20:44:49;;;;;;;15.25;1.45;;;23.80;40.00;;;;;;20865122;28;20033;-15
2021/01/26 20:54:50;;;;;;;7.03;1.15;;;23.60;41.00;;;;;;20870639;28;20044;-16
2021/01/26 21:04:51;;;;;;;4.07;1.70;;;23.50;40.60;;;;;;20891986;28;20032;-14
2021/01/26 21:14:51;;;;;;;6.17;1.40;;;23.20;40.90;;;;;;20897116;28;21049;-14
2021/01/26 21:24:52;;;;;;;7.97;1.92;;;23.30;40.90;;;;;;20867104;28;20569;-14
2021/01/26 21:34:52;;;;;;;6.78;1.20;;;23.20;41.10;;;;;;20863836;28;20388;-14
2021/01/26 21:44:53;;;;;;;6.20;1.50;;;23.10;41.00;;;;;;20911451;28;20041;-15
2021/01/26 21:54:53;;;;;;;4.32;1.60;;;23.00;41.10;;;;;;20873217;28;20487;-14
2021/01/26 22:04:54;;;;;;;3.60;1.43;;;22.80;41.10;;;;;;20872732;28;20048;-13
2021/01/26 22:14:54;;;;;;;5.65;1.10;;;23.10;40.90;;;;;;20900555;28;20039;-14
2021/01/26 22:24:55;;;;;;;5.93;1.70;;;22.90;40.90;;;;;;20895762;28;20116;-14
2021/01/26 22:34:55;;;;;;;5.88;2.40;;;22.70;41.10;;;;;;20898533;28;20032;-13
2021/01/26 22:44:56;;;;;;;3.53;1.98;;;22.50;41.30;;;;;;20862336;28;20151;-13
2021/01/26 22:54:56;;;;;;;5.65;1.52;;;22.30;41.70;;;;;;20863674;28;20064;-14
2021/01/26 23:04:57;;;;;;;4.88;1.20;;;22.10;41.80;;;;;;20864603;28;20037;-13
2021/01/26 23:14:58;;;;;;;6.00;2.13;;;21.80;42.00;;;;;;20870482;28;20033;-13
2021/01/26 23:24:58;;;;;;;4.93;1.67;;;21.60;42.00;;;;;;20876333;28;20025;-13
2021/01/26 23:34:59;;;;;;;3.33;1.35;;;21.40;41.90;;;;;;20875313;28;20051;-14
2021/01/26 23:44:59;;;;;;;3.42;1.42;;;21.30;41.70;;;;;;20891204;28;20511;-13
2021/01/26 23:55:00;;;;;;;3.75;1.23;;;21.40;41.40;;;;;;20889806;28;20044;-14
